createdAt,value
2018-08-09T00:00:37.333Z,23.20
2018-08-09T00:03:05.836Z,23.20
2018-08-09T00:05:34.032Z,23.10
2018-08-09T00:08:02.306Z,23.10
2018-08-09T00:10:30.538Z,23.10
2018-08-09T00:12:58.830Z,23.10
2018-08-09T00:15:27.014Z,23.10
2018-08-09T00:17:55.560Z,23.10
2018-08-09T00:20:23.750Z,23.10
2018-08-09T00:22:51.920Z,23.10
2018-08-09T00:25:20.125Z,23.10
2018-08-09T00:27:48.304Z,23.10
2018-08-09T00:30:16.520Z,23.10
2018-08-09T00:32:44.702Z,23.10
2018-08-09T00:35:12.907Z,23.10
2018-08-09T00:37:41.110Z,23.10
2018-08-09T00:40:09.303Z,23.10
2018-08-09T00:42:37.512Z,23.10
2018-08-09T00:45:06.212Z,23.10
2018-08-09T00:47:34.440Z,23.10
2018-08-09T00:50:02.699Z,23.00
2018-08-09T00:52:30.902Z,23.00
2018-08-09T00:54:59.114Z,22.90
2018-08-09T00:57:27.294Z,22.90
2018-08-09T00:59:55.501Z,22.80
2018-08-09T01:02:23.702Z,22.80
2018-08-09T01:04:51.918Z,22.70
2018-08-09T01:07:20.104Z,22.70
2018-08-09T01:09:48.307Z,22.80
2018-08-09T01:12:16.499Z,22.80
2018-08-09T01:14:44.693Z,22.70
2018-08-09T01:17:12.874Z,22.70
2018-08-09T01:19:41.151Z,22.70
2018-08-09T01:22:09.357Z,22.70
2018-08-09T01:24:37.567Z,22.70
2018-08-09T01:27:08.115Z,22.70
2018-08-09T01:29:37.136Z,22.70
2018-08-09T01:32:05.559Z,22.70
2018-08-09T01:34:33.743Z,22.70
2018-08-09T01:37:01.981Z,22.70
2018-08-09T01:39:30.515Z,22.60
2018-08-09T01:42:09.919Z,22.60
2018-08-09T01:44:38.104Z,22.50
2018-08-09T01:47:06.291Z,22.50
2018-08-09T01:49:34.596Z,22.40
2018-08-09T01:52:02.767Z,22.40
2018-08-09T01:54:30.971Z,22.40
2018-08-09T01:56:59.223Z,22.40
2018-08-09T01:59:27.391Z,22.40
2018-08-09T02:01:55.592Z,22.30
2018-08-09T02:04:23.785Z,22.30
2018-08-09T02:06:51.983Z,22.30
2018-08-09T02:09:25.609Z,22.20
2018-08-09T02:11:53.789Z,22.20
2018-08-09T02:14:21.972Z,22.20
2018-08-09T02:16:50.172Z,22.20
2018-08-09T02:19:18.441Z,22.30
2018-08-09T02:21:46.692Z,22.30
2018-08-09T02:24:14.879Z,22.30
2018-08-09T02:26:43.079Z,22.30
2018-08-09T02:29:11.331Z,22.30
2018-08-09T02:31:39.909Z,22.20
2018-08-09T02:34:08.405Z,22.20
2018-08-09T02:36:36.612Z,22.30
2018-08-09T02:39:06.977Z,22.20
2018-08-09T02:41:35.187Z,22.20
2018-08-09T02:44:03.392Z,22.10
2018-08-09T02:46:31.761Z,22.10
2018-08-09T02:48:59.976Z,22.00
2018-08-09T02:51:28.544Z,22.00
2018-08-09T02:53:56.757Z,21.90
2018-08-09T02:56:24.985Z,21.90
2018-08-09T02:58:53.281Z,21.90
2018-08-09T03:01:21.481Z,21.80
2018-08-09T03:03:49.714Z,21.70
2018-08-09T03:06:17.917Z,21.70
2018-08-09T03:08:46.127Z,21.70
2018-08-09T03:11:14.315Z,21.60
2018-08-09T03:13:42.657Z,21.60
2018-08-09T03:16:10.835Z,21.60
2018-08-09T03:18:39.253Z,21.60
2018-08-09T03:21:07.441Z,21.60
2018-08-09T03:23:35.637Z,21.60
2018-08-09T03:26:04.084Z,21.70
2018-08-09T03:28:32.343Z,21.70
2018-08-09T03:31:00.561Z,21.70
2018-08-09T03:33:28.759Z,21.70
2018-08-09T03:35:56.970Z,21.60
2018-08-09T03:38:25.244Z,21.60
2018-08-09T03:40:53.508Z,21.50
2018-08-09T03:43:21.771Z,21.50
2018-08-09T03:45:49.964Z,21.40
2018-08-09T03:48:18.227Z,21.50
2018-08-09T03:50:46.409Z,21.50
2018-08-09T03:53:14.613Z,21.40
2018-08-09T03:55:42.815Z,21.40
2018-08-09T03:58:11.133Z,21.40
2018-08-09T04:00:39.377Z,21.40
2018-08-09T04:03:07.882Z,21.40
2018-08-09T04:05:36.114Z,21.50
2018-08-09T04:08:04.409Z,21.50
2018-08-09T04:10:32.591Z,21.60
2018-08-09T04:13:00.793Z,21.60
2018-08-09T04:15:28.991Z,21.60
2018-08-09T04:17:57.523Z,21.60
2018-08-09T04:20:25.712Z,21.60
2018-08-09T04:22:53.897Z,21.60
2018-08-09T04:25:22.092Z,21.70
2018-08-09T04:27:50.339Z,21.60
2018-08-09T04:30:18.787Z,21.60
2018-08-09T04:32:46.983Z,21.60
2018-08-09T04:35:15.217Z,21.50
2018-08-09T04:37:43.399Z,21.50
2018-08-09T04:40:11.601Z,21.40
2018-08-09T04:42:39.771Z,21.40
2018-08-09T04:45:08.543Z,21.40
2018-08-09T04:47:36.771Z,21.40
2018-08-09T04:50:05.509Z,21.40
2018-08-09T04:52:33.719Z,21.40
2018-08-09T04:55:01.944Z,21.40
2018-08-09T04:57:30.359Z,21.40
2018-08-09T04:59:58.565Z,21.40
2018-08-09T05:02:26.777Z,21.40
2018-08-09T05:04:55.000Z,21.40
2018-08-09T05:07:23.189Z,21.30
2018-08-09T05:09:51.421Z,21.30
2018-08-09T05:12:19.631Z,21.30
2018-08-09T05:14:47.847Z,21.30
2018-08-09T05:17:16.058Z,21.30
2018-08-09T05:19:44.249Z,21.30
2018-08-09T05:22:12.469Z,21.40
2018-08-09T05:24:40.874Z,21.50
2018-08-09T05:27:09.118Z,21.70
2018-08-09T05:29:37.352Z,21.80
2018-08-09T05:32:05.845Z,22.00
2018-08-09T05:34:34.022Z,22.10
2018-08-09T05:37:02.228Z,22.30
2018-08-09T05:39:30.444Z,22.40
2018-08-09T05:41:58.624Z,22.60
2018-08-09T05:44:26.937Z,22.70
2018-08-09T05:46:55.127Z,23.00
2018-08-09T05:49:23.328Z,23.10
2018-08-09T05:51:51.532Z,23.40
2018-08-09T05:54:19.737Z,23.50
2018-08-09T05:56:47.974Z,23.60
2018-08-09T05:59:16.174Z,23.70
2018-08-09T06:01:44.380Z,23.80
2018-08-09T06:04:12.610Z,24.00
2018-08-09T06:06:40.829Z,24.20
2018-08-09T06:09:10.403Z,24.20
2018-08-09T06:11:38.726Z,24.30
2018-08-09T06:14:07.364Z,24.50
2018-08-09T06:16:35.562Z,24.60
2018-08-09T06:19:04.070Z,24.70
2018-08-09T06:21:32.330Z,24.80
2018-08-09T06:24:00.521Z,25.00
2018-08-09T06:26:29.196Z,25.20
2018-08-09T06:28:57.379Z,25.30
2018-08-09T06:31:25.584Z,25.50
2018-08-09T06:33:53.795Z,25.60
2018-08-09T06:36:22.003Z,25.70
2018-08-09T06:38:50.209Z,25.70
2018-08-09T06:41:18.426Z,25.70
2018-08-09T06:43:46.637Z,25.70
2018-08-09T06:46:14.832Z,25.80
2018-08-09T06:48:43.066Z,25.80
2018-08-09T06:51:11.291Z,25.90
2018-08-09T06:53:39.511Z,26.00
2018-08-09T06:56:07.715Z,26.20
2018-08-09T06:58:36.000Z,26.30
2018-08-09T07:01:04.187Z,26.40
2018-08-09T07:03:32.437Z,26.40
2018-08-09T07:06:00.655Z,26.40
2018-08-09T07:08:28.943Z,26.30
2018-08-09T07:10:57.145Z,26.40
2018-08-09T07:13:25.357Z,26.40
2018-08-09T07:15:53.576Z,26.40
2018-08-09T07:18:21.773Z,26.40
2018-08-09T07:20:49.951Z,26.40
2018-08-09T07:23:18.205Z,26.50
2018-08-09T07:25:46.385Z,26.40
2018-08-09T07:28:15.152Z,26.40
2018-08-09T07:30:43.347Z,26.30
2018-08-09T07:33:11.553Z,26.20
2018-08-09T07:35:39.751Z,26.30
2018-08-09T07:38:08.162Z,26.30
2018-08-09T07:40:36.395Z,26.30
2018-08-09T07:43:04.573Z,26.30
2018-08-09T07:45:32.777Z,26.30
2018-08-09T07:48:01.061Z,26.30
2018-08-09T07:50:29.287Z,26.30
2018-08-09T07:52:57.487Z,26.40
2018-08-09T07:55:25.674Z,26.40
2018-08-09T07:57:53.964Z,26.50
2018-08-09T08:00:22.171Z,26.60
2018-08-09T08:02:50.462Z,26.80
2018-08-09T08:05:18.666Z,26.90
2018-08-09T08:07:46.856Z,27.00
2018-08-09T08:10:15.048Z,27.20
2018-08-09T08:12:43.246Z,27.40
2018-08-09T08:15:11.851Z,27.40
2018-08-09T08:17:40.230Z,27.30
2018-08-09T08:20:08.828Z,27.30
2018-08-09T08:22:37.093Z,27.40
2018-08-09T08:25:05.762Z,27.40
2018-08-09T08:27:34.017Z,27.40
2018-08-09T08:30:02.218Z,27.50
2018-08-09T08:32:30.448Z,27.60
2018-08-09T08:34:58.642Z,27.60
2018-08-09T08:37:26.974Z,27.60
2018-08-09T08:39:55.348Z,27.50
2018-08-09T08:42:23.564Z,27.40
2018-08-09T08:44:51.801Z,27.30
2018-08-09T08:47:20.472Z,27.30
2018-08-09T08:49:48.608Z,27.30
2018-08-09T08:52:16.801Z,27.30
2018-08-09T08:54:45.012Z,27.40
2018-08-09T08:57:13.207Z,27.60
2018-08-09T08:59:41.415Z,27.70
2018-08-09T09:02:09.611Z,27.90
2018-08-09T09:04:37.829Z,28.20
2018-08-09T09:07:06.045Z,28.60
2018-08-09T09:09:34.235Z,29.00
2018-08-09T09:12:02.427Z,29.50
2018-08-09T09:14:30.709Z,29.80
2018-08-09T09:16:58.914Z,30.10
2018-08-09T09:19:27.133Z,30.40
2018-08-09T09:21:55.354Z,30.60
2018-08-09T09:24:23.629Z,31.00
2018-08-09T09:26:51.878Z,31.50
2018-08-09T09:29:20.064Z,32.30
2018-08-09T09:31:48.263Z,33.00
2018-08-09T09:34:16.451Z,33.70
2018-08-09T09:36:44.690Z,34.60
2018-08-09T09:39:12.892Z,35.40
2018-08-09T09:41:41.074Z,36.00
2018-08-09T09:44:09.310Z,36.50
2018-08-09T09:46:37.482Z,36.90
2018-08-09T09:49:05.718Z,37.10
2018-08-09T09:51:33.907Z,37.20
2018-08-09T09:54:02.093Z,37.70
2018-08-09T09:56:30.395Z,38.20
2018-08-09T09:58:58.597Z,38.20
2018-08-09T10:01:32.036Z,38.20
2018-08-09T10:04:00.243Z,37.90
2018-08-09T10:06:28.439Z,37.60
2018-08-09T10:08:56.643Z,37.70
2018-08-09T10:11:24.861Z,37.60
2018-08-09T10:13:53.071Z,37.50
2018-08-09T10:16:21.341Z,37.50
2018-08-09T10:18:49.809Z,37.60
2018-08-09T10:21:18.039Z,37.80
2018-08-09T10:23:46.262Z,37.60
2018-08-09T10:26:14.482Z,37.60
2018-08-09T10:28:42.663Z,38.00
2018-08-09T10:31:11.229Z,38.00
2018-08-09T10:33:39.679Z,38.20
2018-08-09T10:36:07.913Z,38.30
2018-08-09T10:38:36.095Z,38.70
2018-08-09T10:41:04.288Z,38.60
2018-08-09T10:43:32.487Z,38.60
2018-08-09T10:46:00.683Z,38.90
2018-08-09T10:48:28.891Z,39.20
2018-08-09T10:50:57.091Z,39.80
2018-08-09T10:53:25.359Z,40.20
2018-08-09T10:55:53.586Z,40.50
2018-08-09T10:58:21.790Z,40.70
2018-08-09T11:00:49.987Z,41.10
2018-08-09T11:03:18.215Z,41.20
2018-08-09T11:05:46.391Z,41.20
2018-08-09T11:08:14.653Z,41.50
2018-08-09T11:10:42.962Z,41.60
2018-08-09T11:13:11.157Z,42.00
2018-08-09T11:15:39.341Z,42.00
2018-08-09T11:18:07.537Z,41.50
2018-08-09T11:20:35.715Z,40.90
2018-08-09T11:23:03.943Z,40.90
2018-08-09T11:25:32.144Z,41.20
2018-08-09T11:28:00.393Z,41.50
2018-08-09T11:30:28.578Z,42.00
2018-08-09T11:32:56.814Z,42.70
2018-08-09T11:35:25.016Z,42.50
2018-08-09T11:37:53.271Z,42.30
2018-08-09T11:40:21.485Z,42.50
2018-08-09T11:42:49.643Z,42.70
2018-08-09T11:45:17.867Z,42.80
2018-08-09T11:47:46.073Z,42.30
2018-08-09T11:50:14.273Z,41.70
2018-08-09T11:52:42.469Z,41.60
2018-08-09T11:55:10.696Z,41.40
2018-08-09T11:57:38.871Z,41.30
2018-08-09T12:00:07.873Z,40.60
2018-08-09T12:02:36.056Z,40.40
2018-08-09T12:05:04.226Z,40.30
2018-08-09T12:07:32.499Z,39.90
2018-08-09T12:10:00.758Z,39.20
2018-08-09T12:12:28.938Z,38.60
2018-08-09T12:14:57.160Z,38.10
2018-08-09T12:17:25.377Z,37.60
2018-08-09T12:19:53.601Z,37.30
2018-08-09T12:22:21.821Z,37.00
2018-08-09T12:24:50.030Z,36.50
2018-08-09T12:27:18.232Z,36.10
2018-08-09T12:29:46.451Z,35.70
2018-08-09T12:32:14.880Z,35.40
2018-08-09T12:34:43.093Z,35.20
2018-08-09T12:37:11.405Z,34.90
2018-08-09T12:39:39.611Z,34.70
2018-08-09T12:42:07.959Z,34.50
2018-08-09T12:44:36.182Z,34.30
2018-08-09T12:47:04.653Z,34.20
2018-08-09T12:49:32.850Z,34.10
2018-08-09T12:52:01.075Z,33.60
2018-08-09T12:55:31.963Z,32.30
2018-08-09T12:58:00.257Z,30.70
2018-08-09T13:00:28.482Z,28.80
2018-08-09T13:02:56.669Z,27.90
2018-08-09T13:05:24.857Z,27.30
2018-08-09T13:07:53.161Z,26.60
2018-08-09T13:10:21.364Z,25.80
2018-08-09T13:12:49.581Z,24.60
2018-08-09T13:15:17.792Z,23.80
2018-08-09T13:17:46.211Z,23.20
2018-08-09T13:20:18.029Z,22.70
2018-08-09T13:22:46.605Z,22.30
2018-08-09T13:25:14.844Z,22.00
2018-08-09T13:27:43.029Z,21.80
2018-08-09T13:30:12.955Z,21.70
2018-08-09T13:32:41.939Z,21.60
2018-08-09T13:35:10.391Z,21.60
2018-08-09T13:37:38.754Z,21.60
2018-08-09T13:40:08.480Z,21.70
2018-08-09T13:42:36.951Z,21.70
2018-08-09T13:45:05.974Z,21.80
2018-08-09T13:47:34.480Z,22.00
2018-08-09T13:50:02.684Z,22.30
2018-08-09T13:52:30.882Z,22.60
2018-08-09T13:54:59.098Z,22.80
2018-08-09T13:57:27.309Z,23.10
2018-08-09T13:59:55.534Z,23.40
2018-08-09T14:02:23.722Z,23.50
2018-08-09T14:04:51.930Z,23.60
2018-08-09T14:07:20.118Z,23.60
2018-08-09T14:09:48.322Z,23.60
2018-08-09T14:12:16.558Z,23.60
2018-08-09T14:14:44.764Z,23.50
2018-08-09T14:17:12.990Z,23.50
2018-08-09T14:19:41.168Z,23.60
2018-08-09T14:22:09.419Z,23.60
2018-08-09T14:24:37.683Z,23.60
2018-08-09T14:27:05.914Z,23.60
2018-08-09T14:29:34.194Z,23.60
2018-08-09T14:32:02.730Z,23.70
2018-08-09T14:34:30.952Z,23.70
2018-08-09T14:36:59.142Z,23.70
2018-08-09T14:39:28.146Z,23.70
2018-08-09T14:41:56.371Z,23.70
2018-08-09T14:44:24.524Z,23.70
2018-08-09T14:46:52.735Z,23.70
2018-08-09T14:49:20.963Z,23.70
2018-08-09T14:51:49.168Z,23.70
2018-08-09T14:54:17.699Z,23.70
2018-08-09T14:56:45.966Z,23.70
2018-08-09T14:59:14.205Z,23.70
2018-08-09T15:01:42.396Z,23.70
2018-08-09T15:04:10.610Z,23.70
2018-08-09T15:06:38.822Z,23.70
2018-08-09T15:09:08.930Z,23.70
2018-08-09T15:11:37.277Z,23.90
2018-08-09T15:14:06.361Z,23.90
2018-08-09T15:16:34.595Z,24.10
2018-08-09T15:19:02.780Z,24.10
2018-08-09T15:21:31.101Z,24.20
2018-08-09T15:23:59.470Z,24.20
2018-08-09T15:26:27.671Z,24.30
2018-08-09T15:28:55.913Z,24.40
2018-08-09T15:31:24.108Z,24.50
2018-08-09T15:33:52.335Z,24.60
2018-08-09T15:36:20.542Z,24.80
2018-08-09T15:38:48.751Z,25.00
2018-08-09T15:41:16.950Z,25.10
2018-08-09T15:43:45.441Z,25.30
2018-08-09T15:46:13.627Z,25.50
2018-08-09T15:48:41.835Z,25.60
2018-08-09T15:51:10.017Z,25.70
2018-08-09T15:53:38.187Z,25.80
2018-08-09T15:56:06.597Z,25.80
2018-08-09T15:58:34.853Z,25.90
2018-08-09T16:01:03.125Z,26.00
2018-08-09T16:03:31.307Z,26.00
2018-08-09T16:05:59.529Z,25.90
2018-08-09T16:08:27.715Z,25.80
2018-08-09T16:10:55.934Z,25.80
2018-08-09T16:13:24.175Z,25.70
2018-08-09T16:15:52.416Z,25.70
2018-08-09T16:18:20.719Z,25.60
2018-08-09T16:20:48.928Z,25.60
2018-08-09T16:23:17.127Z,25.50
2018-08-09T16:25:45.307Z,25.50
2018-08-09T16:28:13.591Z,25.40
2018-08-09T16:30:41.827Z,25.40
2018-08-09T16:33:10.039Z,25.40
2018-08-09T16:35:38.288Z,25.40
2018-08-09T16:38:06.559Z,25.40
2018-08-09T16:40:34.771Z,25.30
2018-08-09T16:43:02.967Z,25.20
2018-08-09T16:45:31.157Z,25.20
2018-08-09T16:47:59.543Z,25.20
2018-08-09T16:50:27.751Z,25.20
2018-08-09T16:52:55.949Z,25.10
2018-08-09T16:55:24.727Z,25.10
2018-08-09T16:57:53.013Z,25.10
2018-08-09T17:00:22.479Z,25.10
2018-08-09T17:02:51.583Z,25.10
2018-08-09T17:05:21.763Z,25.20
2018-08-09T17:07:50.263Z,25.10
2018-08-09T17:10:20.683Z,25.10
2018-08-09T17:12:48.871Z,25.00
2018-08-09T17:15:19.619Z,25.00
2018-08-09T17:17:47.788Z,24.90
2018-08-09T17:20:21.215Z,24.90
2018-08-09T17:22:49.459Z,24.90
2018-08-09T17:25:18.033Z,24.90
2018-08-09T17:27:47.289Z,24.80
2018-08-09T17:30:17.159Z,24.80
2018-08-09T17:32:45.435Z,24.70
2018-08-09T17:35:14.455Z,24.70
2018-08-09T17:37:44.235Z,24.60
2018-08-09T17:40:16.691Z,24.60
2018-08-09T17:42:45.607Z,24.60
2018-08-09T17:45:14.451Z,24.60
2018-08-09T17:47:43.227Z,24.50
2018-08-09T17:50:11.891Z,24.50
2018-08-09T17:52:40.841Z,24.50
2018-08-09T17:55:13.700Z,24.50
2018-08-09T17:57:43.069Z,24.60
2018-08-09T18:00:13.612Z,24.60
2018-08-09T18:02:41.800Z,24.70
2018-08-09T18:05:12.915Z,24.70
2018-08-09T18:07:41.558Z,24.70
2018-08-09T18:10:14.326Z,24.70
2018-08-09T18:12:42.524Z,24.60
2018-08-09T18:15:10.804Z,24.60
2018-08-09T18:17:39.048Z,24.60
2018-08-09T18:20:15.678Z,24.60
2018-08-09T18:22:44.359Z,24.60
2018-08-09T18:25:13.348Z,24.50
2018-08-09T18:27:41.576Z,24.50
2018-08-09T18:30:13.718Z,24.40
2018-08-09T18:32:42.101Z,24.30
2018-08-09T18:35:12.136Z,24.20
2018-08-09T18:37:40.338Z,24.20
2018-08-09T18:40:11.328Z,24.20
2018-08-09T18:42:39.870Z,24.10
2018-08-09T18:45:09.135Z,24.00
2018-08-09T18:47:37.823Z,24.00
2018-08-09T18:50:09.372Z,24.00
2018-08-09T18:52:37.601Z,24.00
2018-08-09T18:55:06.455Z,24.00
2018-08-09T18:57:34.745Z,24.00
2018-08-09T19:00:03.197Z,24.00
2018-08-09T19:02:31.399Z,23.90
2018-08-09T19:04:59.641Z,23.90
2018-08-09T19:07:27.844Z,23.90
2018-08-09T19:09:56.062Z,23.80
2018-08-09T19:12:24.251Z,23.70
2018-08-09T19:14:52.483Z,23.60
2018-08-09T19:17:20.675Z,23.60
2018-08-09T19:19:49.007Z,23.50
2018-08-09T19:22:17.177Z,23.40
2018-08-09T19:24:45.387Z,23.40
2018-08-09T19:27:13.693Z,23.30
2018-08-09T19:29:41.881Z,23.30
2018-08-09T19:32:10.102Z,23.20
2018-08-09T19:34:38.311Z,23.20
2018-08-09T19:37:06.805Z,23.10
2018-08-09T19:39:35.044Z,23.10
2018-08-09T19:42:03.241Z,23.00
2018-08-09T19:44:31.453Z,23.00
2018-08-09T19:46:59.660Z,23.00
2018-08-09T19:49:27.889Z,22.90
2018-08-09T19:51:56.077Z,22.90
2018-08-09T19:54:24.358Z,22.90
2018-08-09T19:56:52.503Z,22.90
2018-08-09T19:59:20.707Z,22.80
2018-08-09T20:01:48.920Z,22.90
2018-08-09T20:04:17.193Z,22.80
2018-08-09T20:06:45.414Z,22.80
2018-08-09T20:09:13.730Z,22.70
2018-08-09T20:11:41.951Z,22.70
2018-08-09T20:14:10.158Z,22.60
2018-08-09T20:16:38.360Z,22.60
2018-08-09T20:19:06.593Z,22.60
2018-08-09T20:21:34.799Z,22.60
2018-08-09T20:24:03.007Z,22.50
2018-08-09T20:26:31.425Z,22.40
2018-08-09T20:28:59.703Z,22.40
2018-08-09T20:31:27.955Z,22.30
2018-08-09T20:33:56.193Z,22.30
2018-08-09T20:36:24.384Z,22.20
2018-08-09T20:38:52.590Z,22.20
2018-08-09T20:41:20.800Z,22.10
2018-08-09T20:43:49.014Z,22.10
2018-08-09T20:46:17.204Z,22.10
2018-08-09T20:48:45.464Z,22.00
2018-08-09T20:51:14.519Z,22.00
2018-08-09T20:53:42.765Z,22.00
2018-08-09T20:56:10.954Z,21.90
2018-08-09T20:58:39.196Z,21.90
2018-08-09T21:01:07.494Z,21.80
2018-08-09T21:03:35.682Z,21.80
2018-08-09T21:06:03.900Z,21.80
2018-08-09T21:08:32.190Z,21.80
2018-08-09T21:11:00.392Z,21.70
2018-08-09T21:13:28.602Z,21.60
2018-08-09T21:15:56.806Z,21.60
2018-08-09T21:18:25.070Z,21.50
2018-08-09T21:20:53.278Z,21.50
2018-08-09T21:23:21.517Z,21.50
2018-08-09T21:25:49.682Z,21.50
2018-08-09T21:28:17.930Z,21.40
2018-08-09T21:30:46.114Z,21.40
2018-08-09T21:33:14.317Z,21.30
2018-08-09T21:35:42.507Z,21.30
2018-08-09T21:38:10.772Z,21.20
2018-08-09T21:40:39.020Z,21.10
2018-08-09T21:43:07.283Z,21.10
2018-08-09T21:45:35.502Z,21.00
2018-08-09T21:48:03.757Z,21.00
2018-08-09T21:50:31.966Z,20.90
2018-08-09T21:53:00.160Z,20.90
2018-08-09T21:55:28.362Z,20.90
2018-08-09T21:57:56.736Z,20.90
2018-08-09T22:01:01.822Z,20.80
2018-08-09T22:03:32.618Z,20.80
2018-08-09T22:06:06.247Z,20.70
2018-08-09T22:08:39.925Z,20.70
2018-08-09T22:11:14.714Z,20.60
2018-08-09T22:13:48.314Z,20.60
2018-08-09T22:16:21.862Z,20.60
2018-08-09T22:18:55.494Z,20.50
2018-08-09T22:21:29.206Z,20.50
2018-08-09T22:23:57.407Z,20.50
2018-08-09T22:26:25.582Z,20.40
2018-08-09T22:28:53.952Z,20.40
2018-08-09T22:31:22.123Z,20.30
2018-08-09T22:33:50.338Z,20.30
2018-08-09T22:36:18.560Z,20.30
2018-08-09T22:38:46.836Z,20.30
2018-08-09T22:41:15.026Z,20.20
2018-08-09T22:43:43.222Z,20.20
2018-08-09T22:46:11.462Z,20.20
2018-08-09T22:48:39.732Z,20.20
2018-08-09T22:51:08.022Z,20.10
2018-08-09T22:53:36.190Z,20.10
2018-08-09T22:56:04.430Z,20.00
2018-08-09T22:58:32.616Z,20.00
2018-08-09T23:01:02.500Z,19.90
2018-08-09T23:03:31.122Z,19.90
2018-08-09T23:05:59.322Z,19.90
2018-08-09T23:08:27.544Z,19.90
2018-08-09T23:10:55.762Z,19.80
2018-08-09T23:13:24.088Z,19.80
2018-08-09T23:15:52.292Z,19.80
2018-08-09T23:18:20.592Z,19.80
2018-08-09T23:20:48.795Z,19.80
2018-08-09T23:23:16.983Z,19.70
2018-08-09T23:25:45.245Z,19.70
2018-08-09T23:28:13.526Z,19.70
2018-08-09T23:30:41.723Z,19.60
2018-08-09T23:33:09.929Z,19.60
2018-08-09T23:35:38.155Z,19.50
2018-08-09T23:38:06.485Z,19.50
2018-08-09T23:40:34.695Z,19.50
2018-08-09T23:43:02.913Z,19.40
2018-08-09T23:45:31.117Z,19.40
2018-08-09T23:47:59.597Z,19.30
2018-08-09T23:50:27.872Z,19.30
2018-08-09T23:52:56.078Z,19.20
2018-08-09T23:55:24.320Z,19.10
2018-08-09T23:57:52.581Z,19.10
